createdAt,value
2016-11-06T00:00:02.591Z,0
2016-11-06T00:01:02.522Z,0
2016-11-06T00:02:02.462Z,0
2016-11-06T00:03:02.573Z,0
2016-11-06T00:04:02.493Z,0
2016-11-06T00:05:02.556Z,0
2016-11-06T00:06:02.644Z,0
2016-11-06T00:07:02.575Z,0
2016-11-06T00:08:02.583Z,0
2016-11-06T00:09:02.509Z,0
2016-11-06T00:10:02.537Z,0
2016-11-06T00:11:02.556Z,0
2016-11-06T00:12:02.486Z,0
2016-11-06T00:13:02.468Z,0
2016-11-06T00:14:02.458Z,0
2016-11-06T00:15:02.467Z,0
2016-11-06T00:16:02.540Z,0
2016-11-06T00:17:02.506Z,0
2016-11-06T00:18:02.502Z,0
2016-11-06T00:19:02.550Z,0
2016-11-06T00:20:02.649Z,0
2016-11-06T00:21:02.495Z,0
2016-11-06T00:22:02.506Z,0
2016-11-06T00:23:02.582Z,0
2016-11-06T00:24:02.543Z,0
2016-11-06T00:25:02.605Z,0
2016-11-06T00:26:02.572Z,0
2016-11-06T00:27:02.528Z,0
2016-11-06T00:28:02.534Z,0
2016-11-06T00:29:02.520Z,0
2016-11-06T00:30:02.528Z,0
2016-11-06T00:31:02.553Z,0
2016-11-06T00:32:02.553Z,0
2016-11-06T00:33:02.600Z,0
2016-11-06T00:34:02.609Z,0
2016-11-06T00:35:02.619Z,0
2016-11-06T00:36:02.570Z,0
2016-11-06T00:37:02.519Z,0
2016-11-06T00:38:02.748Z,0
2016-11-06T00:39:02.522Z,0
2016-11-06T00:40:02.559Z,0
2016-11-06T00:41:02.579Z,0
2016-11-06T00:42:02.545Z,0
2016-11-06T00:43:02.518Z,0
2016-11-06T00:44:02.570Z,0
2016-11-06T00:45:02.538Z,0
2016-11-06T00:46:02.569Z,0
2016-11-06T00:47:02.617Z,0
2016-11-06T00:48:02.574Z,0
2016-11-06T00:49:02.525Z,0
2016-11-06T00:50:02.540Z,0
2016-11-06T00:51:02.559Z,0
2016-11-06T00:52:02.477Z,0
2016-11-06T00:53:02.717Z,0
2016-11-06T00:54:02.491Z,0
2016-11-06T00:55:02.502Z,0
2016-11-06T00:56:02.594Z,0
2016-11-06T00:57:02.504Z,0
2016-11-06T00:58:02.501Z,0
2016-11-06T00:59:02.501Z,0
2016-11-06T01:00:02.532Z,0
2016-11-06T01:01:02.594Z,0
2016-11-06T01:02:02.677Z,0
2016-11-06T01:03:02.554Z,0
2016-11-06T01:04:02.660Z,0
2016-11-06T01:05:02.647Z,0
2016-11-06T01:06:02.554Z,0
2016-11-06T01:07:02.760Z,0
2016-11-06T01:08:02.596Z,0
2016-11-06T01:09:02.624Z,0
2016-11-06T01:10:02.534Z,0
2016-11-06T01:11:02.559Z,0
2016-11-06T01:12:02.540Z,0
2016-11-06T01:13:02.748Z,0
2016-11-06T01:14:02.549Z,0
2016-11-06T01:15:02.607Z,0
2016-11-06T01:16:03.399Z,0
2016-11-06T01:17:02.636Z,0
2016-11-06T01:18:02.687Z,0
2016-11-06T01:19:02.671Z,0
2016-11-06T01:20:02.598Z,0
2016-11-06T01:21:02.565Z,0
2016-11-06T01:22:02.744Z,0
2016-11-06T01:23:03.013Z,0
2016-11-06T01:24:02.603Z,0
2016-11-06T01:25:03.476Z,0
2016-11-06T01:26:02.616Z,0
2016-11-06T01:27:02.961Z,0
2016-11-06T01:28:02.629Z,0
2016-11-06T01:29:02.915Z,0
2016-11-06T01:30:03.124Z,0
2016-11-06T01:31:02.606Z,0
2016-11-06T01:32:02.606Z,0
2016-11-06T01:33:02.676Z,0
2016-11-06T01:34:02.785Z,0
2016-11-06T01:35:02.724Z,0
2016-11-06T01:36:02.629Z,0
2016-11-06T01:37:02.730Z,0
2016-11-06T01:38:02.696Z,0
2016-11-06T01:39:02.565Z,0
2016-11-06T01:40:02.519Z,0
2016-11-06T01:41:02.552Z,0
2016-11-06T01:42:02.616Z,0
2016-11-06T01:43:02.636Z,0
2016-11-06T01:44:02.798Z,0
2016-11-06T01:45:02.925Z,0
2016-11-06T01:46:02.740Z,0
2016-11-06T01:47:02.568Z,0
2016-11-06T01:48:02.943Z,0
2016-11-06T01:49:02.592Z,0
2016-11-06T01:50:02.613Z,0
2016-11-06T01:51:02.901Z,0
2016-11-06T01:52:02.651Z,0
2016-11-06T01:53:02.663Z,0
2016-11-06T01:54:02.828Z,0
2016-11-06T01:55:02.548Z,0
2016-11-06T01:56:02.722Z,0
2016-11-06T01:57:03.067Z,0
2016-11-06T01:58:02.620Z,0
2016-11-06T01:59:02.543Z,0
2016-11-06T02:00:02.821Z,0
2016-11-06T02:01:02.906Z,0
2016-11-06T02:02:02.543Z,0
2016-11-06T02:03:02.760Z,0
2016-11-06T02:04:02.845Z,0
2016-11-06T02:05:02.610Z,0
2016-11-06T02:06:02.757Z,0
2016-11-06T02:07:02.980Z,0
2016-11-06T02:08:02.584Z,0
2016-11-06T02:09:02.645Z,0
2016-11-06T02:10:02.882Z,0
2016-11-06T02:11:02.650Z,0
2016-11-06T02:12:02.678Z,0
2016-11-06T02:13:02.802Z,0
2016-11-06T02:14:02.675Z,0
2016-11-06T02:15:02.714Z,0
2016-11-06T02:16:02.601Z,0
2016-11-06T02:17:02.742Z,0
2016-11-06T02:18:02.823Z,0
2016-11-06T02:19:02.581Z,0
2016-11-06T02:20:02.924Z,0
2016-11-06T02:21:02.983Z,0
2016-11-06T02:22:02.657Z,0
2016-11-06T02:23:02.652Z,0
2016-11-06T02:24:02.684Z,0
2016-11-06T02:25:02.624Z,0
2016-11-06T02:26:02.652Z,0
2016-11-06T02:27:02.605Z,0
2016-11-06T02:28:03.124Z,0
2016-11-06T02:29:02.643Z,0
2016-11-06T02:30:02.704Z,0
2016-11-06T02:31:02.720Z,0
2016-11-06T02:32:02.801Z,0
2016-11-06T02:33:02.623Z,0
2016-11-06T02:34:02.583Z,0
2016-11-06T02:35:02.619Z,0
2016-11-06T02:36:02.659Z,0
2016-11-06T02:37:02.639Z,0
2016-11-06T02:38:02.882Z,0
2016-11-06T02:39:02.601Z,0
2016-11-06T02:40:03.026Z,0
2016-11-06T02:41:02.607Z,0
2016-11-06T02:42:02.994Z,0
2016-11-06T02:43:03.018Z,0
2016-11-06T02:44:03.052Z,0
2016-11-06T02:45:02.645Z,0
2016-11-06T02:46:02.614Z,0
2016-11-06T02:47:02.623Z,0
2016-11-06T02:48:03.026Z,0
2016-11-06T02:49:02.658Z,0
2016-11-06T02:50:03.868Z,0
2016-11-06T02:51:02.651Z,0
2016-11-06T02:52:02.729Z,0
2016-11-06T02:53:02.961Z,0
2016-11-06T02:54:02.790Z,0
2016-11-06T02:55:02.842Z,0
2016-11-06T02:56:03.096Z,0
2016-11-06T02:57:02.702Z,0
2016-11-06T02:58:02.789Z,0
2016-11-06T02:59:02.620Z,0
2016-11-06T03:00:02.618Z,0
2016-11-06T03:01:03.155Z,0
2016-11-06T03:02:02.805Z,0
2016-11-06T03:03:02.828Z,0
2016-11-06T03:04:02.593Z,0
2016-11-06T03:05:02.658Z,0
2016-11-06T03:06:02.623Z,0
2016-11-06T03:07:02.652Z,0
2016-11-06T03:08:02.664Z,0
2016-11-06T03:09:02.624Z,0
2016-11-06T03:10:02.659Z,0
2016-11-06T03:11:02.700Z,0
2016-11-06T03:12:02.625Z,0
2016-11-06T03:13:02.634Z,0
2016-11-06T03:14:02.631Z,0
2016-11-06T03:15:02.663Z,0
2016-11-06T03:16:02.646Z,0
2016-11-06T03:17:02.646Z,0
2016-11-06T03:18:02.664Z,0
2016-11-06T03:19:02.669Z,0
2016-11-06T03:20:02.653Z,0
2016-11-06T03:21:02.660Z,0
2016-11-06T03:22:02.730Z,0
2016-11-06T03:23:02.685Z,0
2016-11-06T03:24:02.719Z,0
2016-11-06T03:25:02.660Z,0
2016-11-06T03:26:02.665Z,0
2016-11-06T03:27:02.652Z,0
2016-11-06T03:28:02.630Z,0
2016-11-06T03:29:02.606Z,0
2016-11-06T03:30:02.658Z,0
2016-11-06T03:31:02.690Z,0
2016-11-06T03:32:02.681Z,0
2016-11-06T03:33:02.686Z,0
2016-11-06T03:34:02.704Z,0
2016-11-06T03:35:02.684Z,0
2016-11-06T03:36:02.668Z,0
2016-11-06T03:37:02.629Z,0
2016-11-06T03:38:02.714Z,0
2016-11-06T03:39:02.694Z,0
2016-11-06T03:40:02.649Z,0
2016-11-06T03:41:02.670Z,0
2016-11-06T03:42:02.678Z,0
2016-11-06T03:43:02.676Z,0
2016-11-06T03:44:02.666Z,0
2016-11-06T03:45:02.627Z,0
2016-11-06T03:46:02.706Z,0
2016-11-06T03:47:02.680Z,0
2016-11-06T03:48:02.718Z,0
2016-11-06T03:49:02.743Z,0
2016-11-06T03:50:02.730Z,0
2016-11-06T03:51:02.683Z,0
2016-11-06T03:52:02.717Z,0
2016-11-06T03:53:02.691Z,0
2016-11-06T03:54:02.670Z,0
2016-11-06T03:55:02.740Z,0
2016-11-06T03:56:02.700Z,0
2016-11-06T03:57:02.706Z,0
2016-11-06T03:58:02.705Z,0
2016-11-06T03:59:02.847Z,0
2016-11-06T04:00:02.785Z,0
2016-11-06T04:01:02.716Z,0
2016-11-06T04:02:02.709Z,0
2016-11-06T04:03:02.676Z,0
2016-11-06T04:04:02.679Z,0
2016-11-06T04:05:02.699Z,0
2016-11-06T04:06:02.709Z,0
2016-11-06T04:07:02.700Z,0
2016-11-06T04:08:02.639Z,0
2016-11-06T04:09:02.673Z,0
2016-11-06T04:10:02.665Z,0
2016-11-06T04:11:02.687Z,0
2016-11-06T04:12:02.760Z,0
2016-11-06T04:13:02.770Z,0
2016-11-06T04:14:02.677Z,0
2016-11-06T04:15:02.671Z,0
2016-11-06T04:16:02.699Z,0
2016-11-06T04:17:02.712Z,0
2016-11-06T04:18:02.687Z,0
2016-11-06T04:19:02.698Z,0
2016-11-06T04:20:02.713Z,0
2016-11-06T04:21:02.669Z,0
2016-11-06T04:22:02.676Z,0
2016-11-06T04:23:02.684Z,0
2016-11-06T04:24:02.702Z,0
2016-11-06T04:25:02.666Z,0
2016-11-06T04:26:02.735Z,0
2016-11-06T04:27:03.385Z,0
2016-11-06T04:28:02.736Z,0
2016-11-06T04:29:02.735Z,0
2016-11-06T04:30:02.730Z,0
2016-11-06T04:31:02.745Z,0
2016-11-06T04:32:02.698Z,0
2016-11-06T04:33:02.722Z,0
2016-11-06T04:34:02.769Z,0
2016-11-06T04:35:02.745Z,0
2016-11-06T04:36:02.713Z,0
2016-11-06T04:37:02.719Z,0
2016-11-06T04:38:02.714Z,0
2016-11-06T04:39:02.735Z,0
2016-11-06T04:40:02.692Z,0
2016-11-06T04:41:02.763Z,0
2016-11-06T04:42:02.700Z,0
2016-11-06T04:43:02.719Z,0
2016-11-06T04:44:02.686Z,0
2016-11-06T04:45:02.732Z,0
2016-11-06T04:46:02.697Z,0
2016-11-06T04:47:02.666Z,0
2016-11-06T04:48:02.735Z,0
2016-11-06T04:49:02.744Z,0
2016-11-06T04:50:02.737Z,0
2016-11-06T04:51:02.704Z,0
2016-11-06T04:52:02.720Z,0
2016-11-06T04:53:02.680Z,0
2016-11-06T04:54:02.717Z,0
2016-11-06T04:55:02.828Z,0
2016-11-06T04:56:02.755Z,0
2016-11-06T04:57:02.732Z,0
2016-11-06T04:58:02.739Z,0
2016-11-06T04:59:02.728Z,0
2016-11-06T05:00:02.745Z,0
2016-11-06T05:01:02.720Z,0
2016-11-06T05:02:02.800Z,0
2016-11-06T05:03:02.733Z,0
2016-11-06T05:04:02.723Z,0
2016-11-06T05:05:02.792Z,0
2016-11-06T05:06:02.813Z,0
2016-11-06T05:07:02.748Z,0
2016-11-06T05:08:02.726Z,0
2016-11-06T05:09:02.761Z,0
2016-11-06T05:10:02.730Z,0
2016-11-06T05:11:02.716Z,0
2016-11-06T05:12:02.739Z,0
2016-11-06T05:13:02.742Z,0
2016-11-06T05:14:02.717Z,0
2016-11-06T05:15:02.832Z,0
2016-11-06T05:16:02.798Z,0
2016-11-06T05:17:02.787Z,0
2016-11-06T05:18:02.702Z,0
2016-11-06T05:19:02.715Z,0
2016-11-06T05:20:02.743Z,0
2016-11-06T05:21:02.781Z,0
2016-11-06T05:22:02.730Z,0
2016-11-06T05:23:02.826Z,0
2016-11-06T05:24:02.816Z,0
2016-11-06T05:25:02.700Z,0
2016-11-06T05:26:02.765Z,0
2016-11-06T05:27:02.716Z,0
2016-11-06T05:28:02.764Z,0
2016-11-06T05:29:02.741Z,0
2016-11-06T05:30:02.834Z,0
2016-11-06T05:31:02.819Z,0
2016-11-06T05:32:02.738Z,0
2016-11-06T05:33:02.764Z,0
2016-11-06T05:34:02.730Z,0
2016-11-06T05:35:02.808Z,0
2016-11-06T05:36:02.735Z,0
2016-11-06T05:37:02.780Z,0
2016-11-06T05:38:02.767Z,0
2016-11-06T05:39:02.726Z,0
2016-11-06T05:40:02.733Z,0
2016-11-06T05:41:02.806Z,0
2016-11-06T05:42:02.743Z,0
2016-11-06T05:43:02.742Z,0
2016-11-06T05:44:02.747Z,0
2016-11-06T05:45:02.763Z,0
2016-11-06T05:46:02.786Z,0
2016-11-06T05:47:02.918Z,0
2016-11-06T05:48:02.808Z,0
2016-11-06T05:49:02.779Z,0
2016-11-06T05:50:02.811Z,0
2016-11-06T05:51:02.894Z,0
2016-11-06T05:52:02.780Z,0
2016-11-06T05:53:02.793Z,0
2016-11-06T05:54:02.797Z,0
2016-11-06T05:55:02.769Z,0
2016-11-06T05:56:02.740Z,0
2016-11-06T05:57:02.745Z,0
2016-11-06T05:58:02.760Z,0
2016-11-06T05:59:02.818Z,0
2016-11-06T06:00:02.786Z,0
2016-11-06T06:01:02.808Z,0
2016-11-06T06:02:02.767Z,0
2016-11-06T06:03:02.772Z,0
2016-11-06T06:04:02.742Z,0
2016-11-06T06:05:02.786Z,0
2016-11-06T06:06:02.790Z,0
2016-11-06T06:07:02.732Z,0
2016-11-06T06:08:02.771Z,0
2016-11-06T06:09:03.803Z,0
2016-11-06T06:10:04.174Z,0
2016-11-06T06:11:04.089Z,0
2016-11-06T06:12:02.735Z,0
2016-11-06T06:13:03.495Z,0
2016-11-06T06:14:03.128Z,0
2016-11-06T06:15:02.957Z,0
2016-11-06T06:16:02.752Z,0
2016-11-06T06:17:03.397Z,0
2016-11-06T06:18:03.418Z,0
2016-11-06T06:19:03.719Z,0
2016-11-06T06:20:03.639Z,0
2016-11-06T06:21:02.759Z,0
2016-11-06T06:22:02.820Z,0
2016-11-06T06:23:02.807Z,0
2016-11-06T06:24:02.806Z,0
2016-11-06T06:25:02.824Z,0
2016-11-06T06:26:03.242Z,0
2016-11-06T06:27:03.418Z,0
2016-11-06T06:28:02.778Z,0
2016-11-06T06:29:02.784Z,0
2016-11-06T06:30:02.795Z,0
2016-11-06T06:31:02.796Z,0
2016-11-06T06:32:02.741Z,0
2016-11-06T06:33:02.820Z,5
2016-11-06T06:34:02.832Z,5
2016-11-06T06:35:02.813Z,5
2016-11-06T06:36:02.822Z,5
2016-11-06T06:37:02.807Z,5
2016-11-06T06:38:02.757Z,5
2016-11-06T06:39:02.800Z,5
2016-11-06T06:40:02.771Z,5
2016-11-06T06:41:02.777Z,5
2016-11-06T06:42:02.756Z,5
2016-11-06T06:43:02.875Z,5
2016-11-06T06:44:02.836Z,10
2016-11-06T06:45:02.803Z,10
2016-11-06T06:46:03.738Z,10
2016-11-06T06:47:02.799Z,10
2016-11-06T06:48:05.354Z,10
2016-11-06T06:49:03.545Z,5
2016-11-06T06:50:03.258Z,10
2016-11-06T06:51:02.846Z,10
2016-11-06T06:52:03.434Z,10
2016-11-06T06:53:04.139Z,15
2016-11-06T06:54:03.357Z,15
2016-11-06T06:55:03.571Z,15
2016-11-06T06:56:03.484Z,15
2016-11-06T06:57:02.883Z,20
2016-11-06T06:58:02.794Z,15
2016-11-06T06:59:02.755Z,15
2016-11-06T07:00:02.806Z,20
2016-11-06T07:01:03.471Z,20
2016-11-06T07:02:03.069Z,25
2016-11-06T07:03:03.336Z,25
2016-11-06T07:04:03.155Z,25
2016-11-06T07:05:03.633Z,25
2016-11-06T07:06:03.352Z,25
2016-11-06T07:07:02.987Z,20
2016-11-06T07:08:02.745Z,20
2016-11-06T07:09:02.785Z,25
2016-11-06T07:10:02.787Z,25
2016-11-06T07:11:03.363Z,25
2016-11-06T07:12:02.791Z,25
2016-11-06T07:13:03.199Z,25
2016-11-06T07:14:03.532Z,25
2016-11-06T07:15:02.773Z,25
2016-11-06T07:16:02.853Z,25
2016-11-06T07:17:03.459Z,20
2016-11-06T07:18:03.301Z,15
2016-11-06T07:19:02.995Z,15
2016-11-06T07:20:02.822Z,15
2016-11-06T07:21:03.298Z,10
2016-11-06T07:22:03.465Z,15
2016-11-06T07:23:02.789Z,15
2016-11-06T07:24:03.366Z,25
2016-11-06T07:25:02.795Z,25
2016-11-06T07:26:02.875Z,30
2016-11-06T07:27:03.485Z,35
2016-11-06T07:28:03.394Z,30
2016-11-06T07:29:03.135Z,35
2016-11-06T07:30:02.817Z,35
2016-11-06T07:31:02.854Z,35
2016-11-06T07:32:02.911Z,45
2016-11-06T07:33:02.849Z,45
2016-11-06T07:34:02.814Z,45
2016-11-06T07:35:03.125Z,45
2016-11-06T07:36:02.866Z,35
2016-11-06T07:37:02.832Z,45
2016-11-06T07:38:04.559Z,45
2016-11-06T07:39:02.831Z,45
2016-11-06T07:40:03.609Z,50
2016-11-06T07:41:02.818Z,45
2016-11-06T07:42:03.234Z,55
2016-11-06T07:43:02.789Z,60
2016-11-06T07:44:02.785Z,55
2016-11-06T07:45:02.789Z,55
2016-11-06T07:46:02.829Z,50
2016-11-06T07:47:02.800Z,60
2016-11-06T07:48:02.815Z,55
2016-11-06T07:49:02.789Z,50
2016-11-06T07:50:02.901Z,45
2016-11-06T07:51:02.825Z,45
2016-11-06T07:52:02.813Z,45
2016-11-06T07:53:02.819Z,40
2016-11-06T07:54:02.901Z,40
2016-11-06T07:55:02.838Z,40
2016-11-06T07:56:02.861Z,40
2016-11-06T07:57:02.818Z,40
2016-11-06T07:58:02.808Z,45
2016-11-06T07:59:02.830Z,45
2016-11-06T08:00:02.955Z,55
2016-11-06T08:01:02.872Z,55
2016-11-06T08:02:02.808Z,55
2016-11-06T08:03:02.861Z,60
2016-11-06T08:04:02.883Z,60
2016-11-06T08:05:02.856Z,60
2016-11-06T08:06:02.921Z,65
2016-11-06T08:07:02.920Z,70
2016-11-06T08:08:02.840Z,70
2016-11-06T08:09:02.803Z,70
2016-11-06T08:10:02.802Z,70
2016-11-06T08:11:02.872Z,75
2016-11-06T08:12:02.830Z,85
2016-11-06T08:13:02.818Z,85
2016-11-06T08:14:02.845Z,85
2016-11-06T08:15:02.882Z,80
2016-11-06T08:16:02.860Z,80
2016-11-06T08:17:02.856Z,75
2016-11-06T08:18:02.850Z,70
2016-11-06T08:19:02.850Z,75
2016-11-06T08:20:02.881Z,75
2016-11-06T08:21:02.933Z,75
2016-11-06T08:22:02.891Z,75
2016-11-06T08:23:02.843Z,75
2016-11-06T08:24:02.805Z,75
2016-11-06T08:25:02.850Z,80
2016-11-06T08:26:02.856Z,85
2016-11-06T08:27:02.837Z,90
2016-11-06T08:28:02.905Z,85
2016-11-06T08:29:02.891Z,90
2016-11-06T08:30:02.865Z,100
2016-11-06T08:31:02.905Z,95
2016-11-06T08:32:02.864Z,105
2016-11-06T08:33:02.857Z,120
2016-11-06T08:34:02.846Z,115
2016-11-06T08:35:02.928Z,115
2016-11-06T08:36:02.889Z,115
2016-11-06T08:37:02.873Z,125
2016-11-06T08:38:02.850Z,120
2016-11-06T08:39:02.875Z,130
2016-11-06T08:40:02.850Z,135
2016-11-06T08:41:02.920Z,145
2016-11-06T08:42:02.830Z,155
2016-11-06T08:43:02.985Z,155
2016-11-06T08:44:02.854Z,160
2016-11-06T08:45:02.897Z,145
2016-11-06T08:46:02.897Z,135
2016-11-06T08:47:02.872Z,120
2016-11-06T08:48:02.864Z,110
2016-11-06T08:49:02.870Z,115
2016-11-06T08:50:02.910Z,120
2016-11-06T08:51:02.902Z,120
2016-11-06T08:52:03.010Z,115
2016-11-06T08:53:02.878Z,120
2016-11-06T08:54:02.874Z,130
2016-11-06T08:55:02.888Z,130
2016-11-06T08:56:02.882Z,115
2016-11-06T08:57:02.946Z,105
2016-11-06T08:58:02.881Z,110
2016-11-06T08:59:02.859Z,105
2016-11-06T09:00:02.863Z,105
2016-11-06T09:01:02.915Z,105
2016-11-06T09:02:02.902Z,115
2016-11-06T09:03:02.942Z,120
2016-11-06T09:04:02.950Z,135
2016-11-06T09:05:02.943Z,130
2016-11-06T09:06:02.952Z,135
2016-11-06T09:07:02.930Z,130
2016-11-06T09:08:02.893Z,135
2016-11-06T09:09:02.864Z,135
2016-11-06T09:10:02.951Z,140
2016-11-06T09:11:02.915Z,135
2016-11-06T09:12:02.887Z,125
2016-11-06T09:13:02.916Z,125
2016-11-06T09:14:02.887Z,110
2016-11-06T09:15:02.871Z,110
2016-11-06T09:16:02.921Z,95
2016-11-06T09:17:02.889Z,105
2016-11-06T09:18:02.958Z,115
2016-11-06T09:19:02.880Z,105
2016-11-06T09:20:02.898Z,105
2016-11-06T09:21:02.930Z,110
2016-11-06T09:22:02.885Z,110
2016-11-06T09:23:02.876Z,120
2016-11-06T09:24:02.880Z,120
2016-11-06T09:25:02.917Z,105
2016-11-06T09:26:02.917Z,115
2016-11-06T09:27:02.872Z,105
2016-11-06T09:28:02.886Z,105
2016-11-06T09:29:02.937Z,105
2016-11-06T09:30:02.937Z,105
2016-11-06T09:31:03.497Z,100
2016-11-06T09:32:02.933Z,115
2016-11-06T09:33:02.895Z,120
2016-11-06T09:34:02.940Z,120
2016-11-06T09:35:02.978Z,105
2016-11-06T09:36:03.372Z,120
2016-11-06T09:37:02.951Z,110
2016-11-06T09:38:02.950Z,95
2016-11-06T09:39:03.125Z,110
2016-11-06T09:40:02.963Z,120
2016-11-06T09:41:02.972Z,95
2016-11-06T09:42:03.932Z,95
2016-11-06T09:43:03.073Z,85
2016-11-06T09:44:03.034Z,80
2016-11-06T09:45:03.130Z,80
2016-11-06T09:46:02.921Z,115
2016-11-06T09:47:02.895Z,135
2016-11-06T09:48:02.985Z,120
2016-11-06T09:49:03.090Z,130
2016-11-06T09:50:03.001Z,125
2016-11-06T09:51:03.392Z,135
2016-11-06T09:52:03.298Z,160
2016-11-06T09:53:02.940Z,165
2016-11-06T09:54:04.028Z,180
2016-11-06T09:55:03.231Z,180
2016-11-06T09:56:03.007Z,185
2016-11-06T09:57:03.104Z,165
2016-11-06T09:58:03.769Z,145
2016-11-06T09:59:03.025Z,135
2016-11-06T10:00:03.574Z,130
2016-11-06T10:01:03.017Z,120
2016-11-06T10:02:03.063Z,115
2016-11-06T10:03:03.282Z,110
2016-11-06T10:04:02.974Z,130
2016-11-06T10:05:02.970Z,125
2016-11-06T10:06:03.199Z,120
2016-11-06T10:07:04.064Z,115
2016-11-06T10:08:02.922Z,90
2016-11-06T10:09:03.030Z,105
2016-11-06T10:10:03.052Z,125
2016-11-06T10:11:02.925Z,140
2016-11-06T10:12:03.753Z,140
2016-11-06T10:13:02.977Z,125
2016-11-06T10:14:03.046Z,125
2016-11-06T10:15:02.954Z,140
2016-11-06T10:16:03.017Z,160
2016-11-06T10:17:03.101Z,165
2016-11-06T10:18:03.228Z,185
2016-11-06T10:19:02.945Z,205
2016-11-06T10:20:02.955Z,205
2016-11-06T10:21:02.935Z,210
2016-11-06T10:22:04.121Z,215
2016-11-06T10:23:03.376Z,225
2016-11-06T10:24:02.963Z,225
2016-11-06T10:25:03.178Z,210
2016-11-06T10:26:04.207Z,220
2016-11-06T10:27:02.957Z,210
2016-11-06T10:28:03.139Z,215
2016-11-06T10:29:03.095Z,210
2016-11-06T10:30:02.944Z,210
2016-11-06T10:31:02.996Z,215
2016-11-06T10:32:03.124Z,225
2016-11-06T10:33:02.974Z,225
2016-11-06T10:34:03.030Z,215
2016-11-06T10:35:03.246Z,200
2016-11-06T10:36:03.182Z,195
2016-11-06T10:37:03.153Z,225
2016-11-06T10:38:02.989Z,225
2016-11-06T10:39:03.095Z,215
2016-11-06T10:40:03.351Z,215
2016-11-06T10:41:02.948Z,240
2016-11-06T10:42:03.086Z,240
2016-11-06T10:43:03.385Z,220
2016-11-06T10:44:03.051Z,240
2016-11-06T10:45:03.182Z,270
2016-11-06T10:46:02.981Z,265
2016-11-06T10:47:03.130Z,255
2016-11-06T10:48:03.369Z,220
2016-11-06T10:49:03.061Z,190
2016-11-06T10:50:03.054Z,170
2016-11-06T10:51:03.283Z,155
2016-11-06T10:52:03.049Z,135
2016-11-06T10:53:03.072Z,155
2016-11-06T10:54:03.382Z,150
2016-11-06T10:55:02.951Z,160
2016-11-06T10:56:03.024Z,145
2016-11-06T10:57:02.982Z,160
2016-11-06T10:58:03.005Z,170
2016-11-06T10:59:04.371Z,195
2016-11-06T11:00:03.650Z,190
2016-11-06T11:01:02.973Z,195
2016-11-06T11:02:03.093Z,185
2016-11-06T11:03:03.600Z,190
2016-11-06T11:04:03.033Z,190
2016-11-06T11:05:03.238Z,180
2016-11-06T11:06:03.819Z,190
2016-11-06T11:07:03.178Z,195
2016-11-06T11:08:03.638Z,200
2016-11-06T11:09:03.114Z,215
2016-11-06T11:10:03.398Z,210
2016-11-06T11:11:05.341Z,185
2016-11-06T11:12:03.177Z,150
2016-11-06T11:13:03.317Z,135
2016-11-06T11:14:03.773Z,140
2016-11-06T11:15:03.133Z,135
2016-11-06T11:16:03.070Z,140
2016-11-06T11:17:03.297Z,140
2016-11-06T11:18:03.209Z,135
2016-11-06T11:19:03.995Z,150
2016-11-06T11:20:03.203Z,125
2016-11-06T11:21:03.086Z,140
2016-11-06T11:22:03.127Z,145
2016-11-06T11:23:03.095Z,145
2016-11-06T11:24:03.311Z,145
2016-11-06T11:25:03.331Z,135
2016-11-06T11:26:03.194Z,140
2016-11-06T11:27:03.769Z,115
2016-11-06T11:28:03.028Z,120
2016-11-06T11:29:02.993Z,100
2016-11-06T11:30:03.011Z,110
2016-11-06T11:31:03.098Z,115
2016-11-06T11:32:03.039Z,105
2016-11-06T11:33:03.162Z,100
2016-11-06T11:34:04.061Z,110
2016-11-06T11:35:03.217Z,110
2016-11-06T11:36:03.429Z,130
2016-11-06T11:37:03.208Z,140
2016-11-06T11:38:03.042Z,150
2016-11-06T11:39:03.529Z,135
2016-11-06T11:40:03.936Z,150
2016-11-06T11:41:02.981Z,150
2016-11-06T11:42:03.285Z,150
2016-11-06T11:43:03.143Z,170
2016-11-06T11:44:03.901Z,145
2016-11-06T11:45:03.607Z,140
2016-11-06T11:46:04.799Z,140
2016-11-06T11:47:04.316Z,155
2016-11-06T11:48:03.094Z,145
2016-11-06T11:49:03.077Z,135
2016-11-06T11:50:03.853Z,130
2016-11-06T11:51:03.964Z,120
2016-11-06T11:52:03.114Z,115
2016-11-06T11:53:03.580Z,130
2016-11-06T11:54:04.305Z,135
2016-11-06T11:55:03.916Z,140
2016-11-06T11:56:03.775Z,135
2016-11-06T11:57:04.806Z,125
2016-11-06T11:58:03.696Z,130
2016-11-06T11:59:03.778Z,145
2016-11-06T12:00:03.376Z,135
2016-11-06T12:01:03.621Z,140
2016-11-06T12:02:03.408Z,145
2016-11-06T12:03:03.056Z,140
2016-11-06T12:04:03.952Z,150
2016-11-06T12:05:03.100Z,170
2016-11-06T12:06:03.299Z,185
2016-11-06T12:07:04.863Z,180
2016-11-06T12:08:03.321Z,195
2016-11-06T12:09:03.285Z,200
2016-11-06T12:10:03.136Z,200
2016-11-06T12:11:03.023Z,220
2016-11-06T12:12:03.100Z,210
2016-11-06T12:13:04.793Z,190
2016-11-06T12:14:03.831Z,170
2016-11-06T12:15:04.047Z,185
2016-11-06T12:16:03.140Z,175
2016-11-06T12:17:03.296Z,160
2016-11-06T12:18:03.738Z,160
2016-11-06T12:19:03.590Z,160
2016-11-06T12:20:03.383Z,175
2016-11-06T12:21:03.205Z,135
2016-11-06T12:22:03.496Z,140
2016-11-06T12:23:03.074Z,145
2016-11-06T12:24:04.060Z,155
2016-11-06T12:25:03.160Z,145
2016-11-06T12:26:03.772Z,150
2016-11-06T12:27:03.700Z,150
2016-11-06T12:28:03.842Z,145
2016-11-06T12:29:03.139Z,140
2016-11-06T12:30:03.293Z,120
2016-11-06T12:31:03.109Z,100
2016-11-06T12:32:04.131Z,100
2016-11-06T12:33:04.124Z,105
2016-11-06T12:34:04.194Z,135
2016-11-06T12:35:03.373Z,130
2016-11-06T12:36:03.042Z,130
2016-11-06T12:37:03.138Z,165
2016-11-06T12:38:03.068Z,165
2016-11-06T12:39:03.122Z,140
2016-11-06T12:40:03.711Z,125
2016-11-06T12:41:03.074Z,120
2016-11-06T12:42:04.485Z,95
2016-11-06T12:43:03.932Z,95
2016-11-06T12:44:03.231Z,140
2016-11-06T12:45:03.277Z,140
2016-11-06T12:46:03.856Z,140
2016-11-06T12:47:03.250Z,140
2016-11-06T12:48:04.102Z,130
2016-11-06T12:49:03.128Z,100
2016-11-06T12:50:03.162Z,135
2016-11-06T12:51:03.138Z,115
2016-11-06T12:52:03.580Z,115
2016-11-06T12:53:03.414Z,100
2016-11-06T12:54:03.072Z,85
2016-11-06T12:55:03.886Z,130
2016-11-06T12:56:03.080Z,105
2016-11-06T12:57:03.853Z,85
2016-11-06T12:58:03.759Z,85
2016-11-06T12:59:03.699Z,105
2016-11-06T13:00:03.990Z,95
2016-11-06T13:01:03.532Z,105
2016-11-06T13:02:03.151Z,90
2016-11-06T13:03:03.126Z,75
2016-11-06T13:04:03.536Z,85
2016-11-06T13:05:03.686Z,95
2016-11-06T13:06:03.114Z,105
2016-11-06T13:07:04.325Z,105
2016-11-06T13:08:03.068Z,125
2016-11-06T13:09:04.210Z,115
2016-11-06T13:10:03.106Z,95
2016-11-06T13:11:03.183Z,95
2016-11-06T13:12:03.174Z,100
2016-11-06T13:13:03.195Z,75
2016-11-06T13:14:03.138Z,90
2016-11-06T13:15:03.132Z,100
2016-11-06T13:16:03.573Z,120
2016-11-06T13:17:04.210Z,125
2016-11-06T13:18:03.117Z,130
2016-11-06T13:19:03.238Z,110
2016-11-06T13:20:10.091Z,100
2016-11-06T13:21:11.804Z,110
2016-11-06T13:22:12.803Z,100
2016-11-06T13:23:13.205Z,105
2016-11-06T13:24:10.054Z,95
2016-11-06T13:25:04.182Z,100
2016-11-06T13:26:04.266Z,105
2016-11-06T13:27:03.400Z,105
2016-11-06T13:28:03.354Z,75
2016-11-06T13:29:03.109Z,60
2016-11-06T13:30:04.261Z,75
2016-11-06T13:31:03.631Z,60
2016-11-06T13:32:03.263Z,55
2016-11-06T13:33:05.471Z,55
2016-11-06T13:34:03.155Z,55
2016-11-06T13:35:04.229Z,65
2016-11-06T13:36:03.215Z,60
2016-11-06T13:37:03.273Z,55
2016-11-06T13:38:03.109Z,50
2016-11-06T13:39:03.131Z,65
2016-11-06T13:40:03.181Z,60
2016-11-06T13:41:03.496Z,50
2016-11-06T13:42:03.177Z,45
2016-11-06T13:43:03.839Z,55
2016-11-06T13:44:03.295Z,45
2016-11-06T13:45:03.512Z,40
2016-11-06T13:46:03.743Z,45
2016-11-06T13:47:03.276Z,45
2016-11-06T13:48:03.896Z,40
2016-11-06T13:49:03.562Z,50
2016-11-06T13:50:03.322Z,50
2016-11-06T13:51:03.205Z,50
2016-11-06T13:52:03.964Z,55
2016-11-06T13:53:03.973Z,55
2016-11-06T13:54:04.258Z,55
2016-11-06T13:55:03.226Z,55
2016-11-06T13:56:03.324Z,60
2016-11-06T13:57:03.161Z,70
2016-11-06T13:58:03.663Z,75
2016-11-06T13:59:04.009Z,70
2016-11-06T14:00:03.541Z,60
2016-11-06T14:01:03.856Z,60
2016-11-06T14:02:03.277Z,55
2016-11-06T14:03:03.152Z,55
2016-11-06T14:04:03.456Z,50
2016-11-06T14:05:03.084Z,65
2016-11-06T14:06:03.132Z,60
2016-11-06T14:07:03.170Z,55
2016-11-06T14:08:03.437Z,55
2016-11-06T14:09:03.165Z,60
2016-11-06T14:10:03.292Z,60
2016-11-06T14:11:03.097Z,55
2016-11-06T14:12:03.146Z,60
2016-11-06T14:13:03.342Z,55
2016-11-06T14:14:03.241Z,50
2016-11-06T14:15:03.897Z,60
2016-11-06T14:16:03.264Z,60
2016-11-06T14:17:03.247Z,65
2016-11-06T14:18:03.235Z,70
2016-11-06T14:19:03.274Z,70
2016-11-06T14:20:03.423Z,70